createdAt,value
2019-03-11T00:00:01.641Z,99844.15
2019-03-11T00:02:30.842Z,99848.95
2019-03-11T00:04:59.686Z,99845.47
2019-03-11T00:07:28.672Z,99847.58
2019-03-11T00:09:57.600Z,99850.59
2019-03-11T00:12:26.815Z,99857.11
2019-03-11T00:14:55.762Z,99854.16
2019-03-11T00:17:24.794Z,99854.09
2019-03-11T00:19:53.769Z,99847.52
2019-03-11T00:22:22.756Z,99843.64
2019-03-11T00:24:51.958Z,99836.62
2019-03-11T00:27:20.807Z,99848.03
2019-03-11T00:29:49.900Z,99842.33
2019-03-11T00:32:18.861Z,99837.52
2019-03-11T00:34:47.828Z,99838.00
2019-03-11T00:37:17.016Z,99832.27
2019-03-11T00:39:45.931Z,99846.72
2019-03-11T00:42:15.041Z,99838.38
2019-03-11T00:44:43.953Z,99835.24
2019-03-11T00:47:13.096Z,99841.39
2019-03-11T00:49:42.007Z,99838.77
2019-03-11T00:52:10.954Z,99847.52
2019-03-11T00:54:39.954Z,99843.58
2019-03-11T00:57:09.289Z,99851.46
2019-03-11T00:59:38.164Z,99851.46
2019-03-11T01:02:07.061Z,99855.41
2019-03-11T01:04:36.098Z,99851.91
2019-03-11T01:07:05.043Z,99853.28
2019-03-11T01:09:34.005Z,99855.47
2019-03-11T01:12:02.999Z,99850.59
2019-03-11T01:14:32.137Z,99842.27
2019-03-11T01:17:01.285Z,99847.97
2019-03-11T01:19:30.199Z,99841.87
2019-03-11T01:21:59.302Z,99842.71
2019-03-11T01:24:28.322Z,99836.56
2019-03-11T01:26:57.336Z,99844.45
2019-03-11T01:29:26.211Z,99840.95
2019-03-11T01:31:55.141Z,99830.82
2019-03-11T01:34:24.418Z,99829.06
2019-03-11T01:36:53.307Z,99827.75
2019-03-11T01:39:22.406Z,99814.60
2019-03-11T01:41:51.720Z,99811.97
2019-03-11T01:44:20.736Z,99810.16
2019-03-11T01:46:49.746Z,99811.05
2019-03-11T01:49:18.922Z,99799.70
2019-03-11T01:51:48.147Z,99791.81
2019-03-11T01:54:17.233Z,99797.07
2019-03-11T01:56:46.380Z,99793.96
2019-03-11T01:59:15.514Z,99787.39
2019-03-11T02:02:03.445Z,99787.00
2019-03-11T02:04:53.116Z,99788.64
2019-03-11T02:07:22.125Z,99795.63
2019-03-11T02:09:51.304Z,99799.58
2019-03-11T02:12:20.434Z,99789.44
2019-03-11T02:14:49.458Z,99794.77
2019-03-11T02:17:18.348Z,99785.05
2019-03-11T02:19:47.398Z,99789.51
2019-03-11T02:22:16.440Z,99794.77
2019-03-11T02:24:46.017Z,99800.47
2019-03-11T02:27:15.080Z,99801.34
2019-03-11T02:29:44.286Z,99797.33
2019-03-11T02:32:32.569Z,99799.52
2019-03-11T02:35:01.652Z,99822.24
2019-03-11T02:37:30.660Z,99808.23
2019-03-11T02:39:59.717Z,99807.72
2019-03-11T02:42:28.615Z,99795.03
2019-03-11T02:44:57.683Z,99793.27
2019-03-11T02:47:45.534Z,99795.44
2019-03-11T02:50:15.850Z,99788.88
2019-03-11T02:52:44.789Z,99798.08
2019-03-11T02:55:13.750Z,99786.30
2019-03-11T02:57:43.135Z,99790.63
2019-03-11T03:00:13.239Z,99786.69
2019-03-11T03:03:01.470Z,99783.67
2019-03-11T03:05:33.761Z,99784.06
2019-03-11T03:08:02.704Z,99780.98
2019-03-11T03:10:31.690Z,99773.09
2019-03-11T03:13:00.839Z,99768.67
2019-03-11T03:15:29.897Z,99771.78
2019-03-11T03:17:58.919Z,99764.28
2019-03-11T03:20:27.873Z,99767.78
2019-03-11T03:22:56.966Z,99759.02
2019-03-11T03:25:33.729Z,99754.63
2019-03-11T03:27:57.138Z,99759.41
2019-03-11T03:30:45.272Z,99764.28
2019-03-11T03:33:14.443Z,99760.78
2019-03-11T03:35:43.415Z,99772.61
2019-03-11T03:38:12.351Z,99764.73
2019-03-11T03:40:41.462Z,99773.48
2019-03-11T03:43:10.613Z,99778.30
2019-03-11T03:45:42.036Z,99778.61
2019-03-11T03:48:12.055Z,99780.86
2019-03-11T03:50:41.214Z,99779.13
2019-03-11T03:53:10.064Z,99782.17
2019-03-11T03:55:39.017Z,99780.44
2019-03-11T03:58:08.162Z,99790.89
2019-03-11T04:00:37.024Z,99791.77
2019-03-11T04:03:06.080Z,99783.48
2019-03-11T04:05:34.990Z,99794.00
2019-03-11T04:08:04.088Z,99794.00
2019-03-11T04:10:33.327Z,99797.08
2019-03-11T04:13:02.252Z,99806.28
2019-03-11T04:15:31.074Z,99800.64
2019-03-11T04:18:00.128Z,99804.97
2019-03-11T04:20:29.122Z,99805.84
2019-03-11T04:22:59.647Z,99807.59
2019-03-11T04:25:29.939Z,99804.10
2019-03-11T04:27:58.162Z,99805.77
2019-03-11T04:30:27.214Z,99802.40
2019-03-11T04:32:56.233Z,99798.91
2019-03-11T04:35:25.205Z,99799.71
2019-03-11T04:37:54.314Z,99797.53
2019-03-11T04:40:23.140Z,99800.16
2019-03-11T04:42:52.287Z,99800.09
2019-03-11T04:45:21.168Z,99797.08
2019-03-11T04:47:49.968Z,99797.08
2019-03-11T04:50:19.065Z,99785.70
2019-03-11T04:52:48.243Z,99788.33
2019-03-11T04:55:17.138Z,99785.63
2019-03-11T04:57:48.332Z,99796.09
2019-03-11T05:00:22.482Z,99795.70
2019-03-11T05:02:51.415Z,99791.31
2019-03-11T05:05:20.368Z,99804.45
2019-03-11T05:07:49.384Z,99803.98
2019-03-11T05:10:18.388Z,99803.14
2019-03-11T05:12:47.554Z,99796.57
2019-03-11T05:15:16.382Z,99796.09
2019-03-11T05:17:45.333Z,99803.14
2019-03-11T05:20:14.762Z,99806.09
2019-03-11T05:22:43.898Z,99802.95
2019-03-11T05:25:33.509Z,99806.03
2019-03-11T05:28:02.477Z,99807.73
2019-03-11T05:30:31.380Z,99811.22
2019-03-11T05:33:00.280Z,99810.23
2019-03-11T05:35:29.530Z,99818.98
2019-03-11T05:37:58.573Z,99822.87
2019-03-11T05:40:27.545Z,99813.73
2019-03-11T05:42:56.679Z,99820.69
2019-03-11T05:45:25.597Z,99818.06
2019-03-11T05:47:54.585Z,99812.34
2019-03-11T05:50:23.610Z,99817.16
2019-03-11T05:52:52.571Z,99814.92
2019-03-11T05:55:21.545Z,99807.41
2019-03-11T05:57:54.623Z,99803.89
2019-03-11T06:00:26.880Z,99815.17
2019-03-11T06:02:55.725Z,99801.20
2019-03-11T06:05:24.751Z,99801.97
2019-03-11T06:07:53.606Z,99805.39
2019-03-11T06:10:22.674Z,99810.97
2019-03-11T06:12:51.779Z,99809.21
2019-03-11T06:15:20.618Z,99802.58
2019-03-11T06:17:49.526Z,99810.84
2019-03-11T06:20:33.289Z,99820.47
2019-03-11T06:23:02.598Z,99808.22
2019-03-11T06:25:31.613Z,99818.67
2019-03-11T06:28:00.569Z,99819.48
2019-03-11T06:30:29.470Z,99817.58
2019-03-11T06:32:58.480Z,99824.86
2019-03-11T06:35:27.490Z,99824.80
2019-03-11T06:37:56.495Z,99822.97
2019-03-11T06:40:25.508Z,99826.41
2019-03-11T06:42:54.524Z,99826.11
2019-03-11T06:45:23.614Z,99830.86
2019-03-11T06:47:52.631Z,99832.06
2019-03-11T06:50:21.881Z,99830.03
2019-03-11T06:52:50.960Z,99832.31
2019-03-11T06:55:19.830Z,99833.39
2019-03-11T06:57:48.622Z,99834.59
2019-03-11T07:00:17.740Z,99833.51
2019-03-11T07:02:46.638Z,99835.17
2019-03-11T07:05:20.405Z,99836.00
2019-03-11T07:07:46.745Z,99835.53
2019-03-11T07:10:16.003Z,99841.63
2019-03-11T07:12:44.981Z,99847.50
2019-03-11T07:15:14.056Z,99848.14
2019-03-11T07:17:42.985Z,99837.73
2019-03-11T07:20:12.406Z,99838.98
2019-03-11T07:22:41.516Z,99840.61
2019-03-11T07:25:10.570Z,99848.52
2019-03-11T07:27:39.548Z,99854.58
2019-03-11T07:30:09.636Z,99849.62
2019-03-11T07:32:38.570Z,99858.84
2019-03-11T07:35:08.687Z,99859.16
2019-03-11T07:37:37.163Z,99862.73
2019-03-11T07:40:06.221Z,99861.94
2019-03-11T07:42:35.162Z,99857.45
2019-03-11T07:45:04.202Z,99868.23
2019-03-11T07:47:33.176Z,99872.91
2019-03-11T07:50:02.079Z,99864.40
2019-03-11T07:52:30.874Z,99862.38
2019-03-11T07:54:59.765Z,99861.12
2019-03-11T07:57:28.658Z,99868.08
2019-03-11T07:59:57.609Z,99869.61
2019-03-11T08:02:26.563Z,99874.09
2019-03-11T08:04:55.478Z,99881.84
2019-03-11T08:07:24.339Z,99877.58
2019-03-11T08:09:53.192Z,99875.84
2019-03-11T08:12:21.992Z,99887.70
2019-03-11T08:14:50.881Z,99890.48
2019-03-11T08:17:19.787Z,99884.83
2019-03-11T08:19:48.902Z,99877.45
2019-03-11T08:22:17.915Z,99891.18
2019-03-11T08:24:46.788Z,99889.06
2019-03-11T08:27:15.799Z,99891.39
2019-03-11T08:29:44.642Z,99895.00
2019-03-11T08:32:13.461Z,99888.97
2019-03-11T08:34:42.388Z,99892.58
2019-03-11T08:37:11.538Z,99900.03
2019-03-11T08:39:40.449Z,99906.17
2019-03-11T08:42:09.479Z,99907.94
2019-03-11T08:44:38.404Z,99904.44
2019-03-11T08:47:07.491Z,99910.71
2019-03-11T08:49:36.408Z,99900.63
2019-03-11T08:52:05.636Z,99903.98
2019-03-11T08:54:34.471Z,99897.50
2019-03-11T08:57:03.871Z,99894.20
2019-03-11T08:59:32.783Z,99907.62
2019-03-11T09:02:01.602Z,99897.87
2019-03-11T09:04:30.532Z,99903.87
2019-03-11T09:06:59.549Z,99910.53
2019-03-11T09:09:28.520Z,99907.34
2019-03-11T09:11:57.485Z,99916.28
2019-03-11T09:14:26.570Z,99921.03
2019-03-11T09:16:55.753Z,99926.47
2019-03-11T09:19:24.602Z,99920.62
2019-03-11T09:21:53.631Z,99922.75
2019-03-11T09:24:22.574Z,99931.36
2019-03-11T09:26:51.532Z,99937.44
2019-03-11T09:29:20.474Z,99943.36
2019-03-11T09:31:49.476Z,99943.21
2019-03-11T09:34:37.746Z,99941.29
2019-03-11T09:37:06.831Z,99938.95
2019-03-11T09:39:35.837Z,99956.91
2019-03-11T09:42:04.751Z,99955.09
2019-03-11T09:44:33.847Z,99957.73
2019-03-11T09:47:02.818Z,99956.83
2019-03-11T09:49:31.777Z,99966.98
2019-03-11T09:52:00.753Z,99964.34
2019-03-11T09:54:29.789Z,99958.15
2019-03-11T09:56:58.803Z,99967.77
2019-03-11T09:59:27.816Z,99967.69
2019-03-11T10:01:56.850Z,99972.75
2019-03-11T10:04:25.822Z,99970.41
2019-03-11T10:06:54.856Z,99974.38
2019-03-11T10:09:23.771Z,99982.30
2019-03-11T10:11:52.867Z,99983.61
2019-03-11T10:14:21.869Z,99988.59
2019-03-11T10:16:50.845Z,99990.58
2019-03-11T10:19:19.934Z,99999.14
2019-03-11T10:21:48.901Z,100002.83
2019-03-11T10:24:17.923Z,100004.38
2019-03-11T10:26:48.159Z,100004.06
2019-03-11T10:29:17.164Z,100004.59
2019-03-11T10:31:45.998Z,100002.09
2019-03-11T10:34:14.934Z,100006.13
2019-03-11T10:36:44.050Z,100005.44
2019-03-11T10:39:13.090Z,100006.76
2019-03-11T10:41:41.934Z,100009.47
2019-03-11T10:44:10.715Z,100005.09
2019-03-11T10:46:39.575Z,100013.08
2019-03-11T10:49:08.498Z,100015.34
2019-03-11T10:51:37.409Z,100015.27
2019-03-11T10:54:06.344Z,100027.59
2019-03-11T10:56:35.464Z,100018.56
2019-03-11T10:59:04.859Z,100013.28
2019-03-11T11:01:33.784Z,100016.37
2019-03-11T11:04:02.931Z,100024.67
2019-03-11T11:06:31.898Z,100017.63
2019-03-11T11:09:20.177Z,100017.55
2019-03-11T11:11:49.137Z,100034.25
2019-03-11T11:14:18.219Z,100043.00
2019-03-11T11:16:47.143Z,100046.12
2019-03-11T11:19:16.171Z,100049.29
2019-03-11T11:21:46.153Z,100046.80
2019-03-11T11:24:15.199Z,100048.98
2019-03-11T11:26:44.112Z,100054.12
2019-03-11T11:29:13.084Z,100053.97
2019-03-11T11:31:42.009Z,100055.98
2019-03-11T11:34:10.931Z,100051.13
2019-03-11T11:36:40.027Z,100055.70
2019-03-11T11:39:08.960Z,100058.61
2019-03-11T11:41:37.963Z,100055.03
2019-03-11T11:44:06.983Z,100067.28
2019-03-11T11:46:35.848Z,100064.58
2019-03-11T11:49:04.737Z,100073.67
2019-03-11T11:51:33.845Z,100070.51
2019-03-11T11:54:03.110Z,100071.37
2019-03-11T11:56:31.930Z,100075.78
2019-03-11T11:59:00.861Z,100073.15
2019-03-11T12:01:29.859Z,100083.33
2019-03-11T12:03:58.890Z,100082.39
2019-03-11T12:06:28.626Z,100086.88
2019-03-11T12:08:57.493Z,100076.87
2019-03-11T12:11:26.446Z,100077.70
2019-03-11T12:13:55.475Z,100091.39
2019-03-11T12:16:24.410Z,100092.70
2019-03-11T12:18:53.477Z,100085.24
2019-03-11T12:21:22.429Z,100074.83
2019-03-11T12:23:51.462Z,100094.63
2019-03-11T12:26:20.469Z,100081.57
2019-03-11T12:28:49.563Z,100089.48
2019-03-11T12:31:19.158Z,100094.77
2019-03-11T12:33:49.028Z,100103.14
2019-03-11T12:36:18.503Z,100090.42
2019-03-11T12:38:47.653Z,100103.14
2019-03-11T12:41:16.688Z,100099.18
2019-03-11T12:43:45.691Z,100106.27
2019-03-11T12:46:14.625Z,100110.67
2019-03-11T12:48:43.561Z,100109.81
2019-03-11T12:51:12.601Z,100113.31
2019-03-11T12:53:41.517Z,100112.86
2019-03-11T12:56:10.426Z,100114.11
2019-03-11T12:58:41.782Z,100108.84
2019-03-11T13:01:10.491Z,100114.11
2019-03-11T13:03:39.383Z,100110.53
2019-03-11T13:06:08.374Z,100108.28
2019-03-11T13:08:37.379Z,100109.59
2019-03-11T13:11:06.517Z,100105.64
2019-03-11T13:13:35.739Z,100117.45
2019-03-11T13:16:04.778Z,100118.31
2019-03-11T13:18:44.496Z,100111.27
2019-03-11T13:21:25.760Z,100102.47
2019-03-11T13:23:54.850Z,100104.17
2019-03-11T13:26:23.738Z,100098.89
2019-03-11T13:28:52.827Z,100089.66
2019-03-11T13:31:21.692Z,100092.16
2019-03-11T13:33:50.918Z,100089.52
2019-03-11T13:36:20.123Z,100095.20
2019-03-11T13:38:49.036Z,100090.83
2019-03-11T13:41:18.046Z,100101.39
2019-03-11T13:43:48.649Z,100107.99
2019-03-11T13:46:17.709Z,100098.75
2019-03-11T13:48:46.533Z,100099.17
2019-03-11T13:51:15.422Z,100095.59
2019-03-11T13:53:44.426Z,100094.58
2019-03-11T13:56:13.387Z,100088.84
2019-03-11T13:58:42.367Z,100098.81
2019-03-11T14:01:11.339Z,100085.46
2019-03-11T14:03:40.453Z,100082.48
2019-03-11T14:06:09.339Z,100072.78
2019-03-11T14:08:38.475Z,100083.20
2019-03-11T14:11:07.381Z,100075.44
2019-03-11T14:13:36.284Z,100020.91
2019-03-11T14:16:05.321Z,100093.64
2019-03-11T14:18:34.346Z,100092.31
2019-03-11T14:21:03.361Z,100096.77
2019-03-11T14:23:32.472Z,100102.50
2019-03-11T14:26:01.535Z,100104.83
2019-03-11T14:28:30.500Z,100107.05
2019-03-11T14:30:59.542Z,100102.57
2019-03-11T14:33:28.591Z,100091.94
2019-03-11T14:35:57.562Z,100094.65
2019-03-11T14:38:26.548Z,100086.73
2019-03-11T14:40:55.631Z,100093.85
2019-03-11T14:43:24.520Z,100087.81
2019-03-11T14:45:53.662Z,100088.79
2019-03-11T14:48:22.531Z,100092.82
2019-03-11T14:50:51.683Z,100092.06
2019-03-11T14:53:20.567Z,100085.53
2019-03-11T14:55:49.680Z,100100.58
2019-03-11T14:58:39.376Z,100094.50
2019-03-11T15:01:08.197Z,100089.78
2019-03-11T15:03:37.136Z,100096.91
2019-03-11T15:06:06.119Z,100088.67
2019-03-11T15:08:35.199Z,100093.02
2019-03-11T15:11:04.205Z,100095.28
2019-03-11T15:13:33.370Z,100093.95
2019-03-11T15:16:02.251Z,100101.47
2019-03-11T15:18:31.244Z,100100.22
2019-03-11T15:21:00.282Z,100106.44
2019-03-11T15:23:29.417Z,100111.33
2019-03-11T15:25:58.353Z,100126.38
2019-03-11T15:28:27.218Z,100121.61
2019-03-11T15:30:56.002Z,100126.89
2019-03-11T15:33:25.026Z,100119.46
2019-03-11T15:35:54.096Z,100122.55
2019-03-11T15:38:23.656Z,100118.66
2019-03-11T15:40:52.784Z,100115.95
2019-03-11T15:43:21.717Z,100114.33
2019-03-11T15:45:50.727Z,100112.14
2019-03-11T15:48:19.771Z,100108.17
2019-03-11T15:50:48.630Z,100102.52
2019-03-11T15:53:17.555Z,100102.10
2019-03-11T15:55:46.471Z,100105.61
2019-03-11T15:58:15.352Z,100102.52
2019-03-11T16:00:44.470Z,100085.36
2019-03-11T16:03:13.354Z,100086.27
2019-03-11T16:05:42.383Z,100092.03
2019-03-11T16:08:11.260Z,100087.27
2019-03-11T16:10:40.165Z,100084.25
2019-03-11T16:13:09.532Z,100080.81
2019-03-11T16:15:38.505Z,100088.88
2019-03-11T16:18:07.548Z,100092.52
2019-03-11T16:20:36.575Z,100085.13
2019-03-11T16:23:05.530Z,100083.88
2019-03-11T16:25:34.601Z,100092.73
2019-03-11T16:28:03.605Z,100092.80
2019-03-11T16:30:32.610Z,100092.94
2019-03-11T16:33:01.593Z,100104.88
2019-03-11T16:35:30.585Z,100099.19
2019-03-11T16:37:59.550Z,100108.49
2019-03-11T16:40:28.726Z,100107.21
2019-03-11T16:42:57.668Z,100106.45
2019-03-11T16:45:26.683Z,100110.05
2019-03-11T16:47:55.671Z,100108.73
2019-03-11T16:50:24.726Z,100114.95
2019-03-11T16:52:53.685Z,100128.20
2019-03-11T16:55:25.590Z,100131.84
2019-03-11T16:57:54.407Z,100129.73
2019-03-11T17:00:27.173Z,100132.88
2019-03-11T17:02:56.184Z,100135.59
2019-03-11T17:05:25.293Z,100140.03
2019-03-11T17:07:54.266Z,100150.72
2019-03-11T17:10:23.193Z,100147.66
2019-03-11T17:12:52.327Z,100149.11
2019-03-11T17:15:21.550Z,100151.36
2019-03-11T17:17:50.595Z,100155.77
2019-03-11T17:20:19.813Z,100154.52
2019-03-11T17:23:10.815Z,100165.55
2019-03-11T17:25:39.843Z,100181.44
2019-03-11T17:28:08.834Z,100185.84
2019-03-11T17:30:37.917Z,100190.31
2019-03-11T17:33:06.859Z,100201.86
2019-03-11T17:35:37.639Z,100206.69
2019-03-11T17:38:06.697Z,100207.20
2019-03-11T17:40:35.991Z,100216.49
2019-03-11T17:43:05.027Z,100218.74
2019-03-11T17:45:34.013Z,100231.13
2019-03-11T17:48:02.953Z,100231.57
2019-03-11T17:50:32.016Z,100234.27
2019-03-11T17:53:00.980Z,100242.67
2019-03-11T17:55:29.998Z,100246.20
2019-03-11T17:57:58.963Z,100254.59
2019-03-11T18:00:29.312Z,100268.67
2019-03-11T18:02:57.533Z,100270.48
2019-03-11T18:05:26.577Z,100281.98
2019-03-11T18:07:55.473Z,100300.05
2019-03-11T18:10:24.527Z,100303.13
2019-03-11T18:12:53.634Z,100313.68
2019-03-11T18:15:22.525Z,100314.61
2019-03-11T18:17:51.538Z,100322.13
2019-03-11T18:20:20.706Z,100325.66
2019-03-11T18:22:49.924Z,100336.27
2019-03-11T18:25:19.164Z,100345.50
2019-03-11T18:27:48.125Z,100352.15
2019-03-11T18:30:18.956Z,100366.26
2019-03-11T18:32:48.145Z,100378.98
2019-03-11T18:35:17.308Z,100382.95
2019-03-11T18:37:46.349Z,100397.45
2019-03-11T18:40:15.705Z,100400.14
2019-03-11T18:42:44.695Z,100414.70
2019-03-11T18:45:13.722Z,100421.73
2019-03-11T18:47:42.789Z,100433.15
2019-03-11T18:50:12.333Z,100449.41
2019-03-11T18:52:41.196Z,100456.45
2019-03-11T18:55:10.345Z,100468.80
2019-03-11T18:57:39.349Z,100482.81
2019-03-11T19:00:09.664Z,100489.02
2019-03-11T19:02:37.744Z,100497.37
2019-03-11T19:05:07.920Z,100505.87
2019-03-11T19:07:36.963Z,100520.36
2019-03-11T19:10:25.189Z,100536.13
2019-03-11T19:12:54.264Z,100534.86
2019-03-11T19:15:23.206Z,100552.00
2019-03-11T19:17:52.433Z,100559.91
2019-03-11T19:20:21.466Z,100558.59
2019-03-11T19:22:50.558Z,100577.88
2019-03-11T19:25:19.566Z,100579.20
2019-03-11T19:27:48.583Z,100586.21
2019-03-11T19:30:19.443Z,100593.24
2019-03-11T19:32:48.440Z,100609.98
2019-03-11T19:35:18.003Z,100626.69
2019-03-11T19:37:47.065Z,100629.33
2019-03-11T19:40:16.476Z,100639.88
2019-03-11T19:42:45.486Z,100657.94
2019-03-11T19:45:15.289Z,100666.77
2019-03-11T19:47:44.620Z,100673.35
2019-03-11T19:50:13.853Z,100685.22
2019-03-11T19:52:42.845Z,100690.54
2019-03-11T19:55:12.094Z,100708.56
2019-03-11T19:57:41.107Z,100709.88
2019-03-11T20:00:12.623Z,100711.67
2019-03-11T20:02:41.728Z,100723.06
2019-03-11T20:05:11.198Z,100718.66
2019-03-11T20:07:40.211Z,100724.86
2019-03-11T20:10:10.248Z,100731.45
2019-03-11T20:12:39.282Z,100736.29
2019-03-11T20:15:08.710Z,100739.40
2019-03-11T20:17:37.739Z,100747.75
2019-03-11T20:20:07.338Z,100745.12
2019-03-11T20:22:36.259Z,100749.52
2019-03-11T20:25:05.839Z,100753.08
2019-03-11T20:27:34.849Z,100753.95
2019-03-11T20:30:03.966Z,100762.74
2019-03-11T20:32:32.932Z,100761.03
2019-03-11T20:35:01.912Z,100770.66
2019-03-11T20:37:30.894Z,100770.66
2019-03-11T20:39:59.925Z,100789.09
2019-03-11T20:42:28.832Z,100786.06
2019-03-11T20:44:57.809Z,100793.98
2019-03-11T20:47:26.953Z,100801.44
2019-03-11T20:49:57.525Z,100806.23
2019-03-11T20:52:28.667Z,100819.02
2019-03-11T20:54:57.303Z,100814.19
2019-03-11T20:57:26.285Z,100822.57
2019-03-11T20:59:55.389Z,100832.23
2019-03-11T21:02:24.451Z,100848.50
2019-03-11T21:04:53.443Z,100853.77
2019-03-11T21:07:22.498Z,100848.55
2019-03-11T21:09:51.508Z,100837.55
2019-03-11T21:12:20.426Z,100839.31
2019-03-11T21:14:49.584Z,100832.73
2019-03-11T21:17:26.064Z,100835.36
2019-03-11T21:19:49.250Z,100838.88
2019-03-11T21:22:18.088Z,100847.18
2019-03-11T21:24:58.882Z,100847.66
2019-03-11T21:27:17.864Z,100848.97
2019-03-11T21:29:46.775Z,100849.81
2019-03-11T21:32:15.848Z,100853.38
2019-03-11T21:34:45.147Z,100864.83
2019-03-11T21:37:15.179Z,100870.98
2019-03-11T21:39:44.705Z,100878.45
2019-03-11T21:42:13.919Z,100886.80
2019-03-11T21:44:42.839Z,100890.36
2019-03-11T21:47:11.888Z,100894.75
2019-03-11T21:49:41.013Z,100906.17
2019-03-11T21:52:09.866Z,100907.98
2019-03-11T21:54:39.239Z,100916.72
2019-03-11T21:57:08.151Z,100913.69
2019-03-11T21:59:37.284Z,100914.13
2019-03-11T22:02:06.193Z,100920.27
2019-03-11T22:04:35.293Z,100922.91
2019-03-11T22:07:04.308Z,100921.59
2019-03-11T22:09:33.261Z,100927.25
2019-03-11T22:12:02.346Z,100933.84
2019-03-11T22:14:31.275Z,100938.72
2019-03-11T22:17:00.279Z,100935.20
2019-03-11T22:19:29.287Z,100932.62
2019-03-11T22:21:58.331Z,100940.52
2019-03-11T22:24:27.293Z,100949.30
2019-03-11T22:26:56.294Z,100950.62
2019-03-11T22:29:25.426Z,100951.11
2019-03-11T22:31:54.309Z,100950.66
2019-03-11T22:34:23.361Z,100951.06
2019-03-11T22:36:52.320Z,100955.06
2019-03-11T22:39:21.333Z,100952.42
2019-03-11T22:41:52.625Z,100961.20
2019-03-11T22:44:20.932Z,100960.77
2019-03-11T22:46:50.245Z,100960.33
2019-03-11T22:49:19.155Z,100965.60
2019-03-11T22:51:48.166Z,100969.11
2019-03-11T22:54:17.176Z,100970.88
2019-03-11T22:56:46.301Z,100974.42
2019-03-11T22:59:15.300Z,100981.45
2019-03-11T23:01:44.568Z,100981.05
2019-03-11T23:04:13.545Z,100985.01
2019-03-11T23:06:42.538Z,100990.28
2019-03-11T23:09:11.543Z,100992.48
2019-03-11T23:11:40.568Z,100989.41
2019-03-11T23:14:09.633Z,100988.53
2019-03-11T23:16:38.588Z,100995.55
2019-03-11T23:19:07.713Z,100990.72
2019-03-11T23:21:36.671Z,100991.16
2019-03-11T23:24:05.579Z,100990.28
2019-03-11T23:26:34.622Z,100985.01
2019-03-11T23:29:03.541Z,100989.41
2019-03-11T23:31:32.336Z,100992.48
2019-03-11T23:34:01.353Z,100991.64
2019-03-11T23:36:30.390Z,100987.21
2019-03-11T23:38:59.463Z,100992.95
2019-03-11T23:41:29.098Z,100996.03
2019-03-11T23:43:58.191Z,101002.18
2019-03-11T23:46:27.234Z,101006.58
2019-03-11T23:48:56.144Z,101009.66
2019-03-11T23:51:25.131Z,101007.49
2019-03-11T23:53:54.001Z,101009.66
2019-03-11T23:56:23.169Z,101011.89
2019-03-11T23:58:52.290Z,101004.38
